Mount Plymouth, Florida
Current Conditions -  °F | °C
As of 4:53 AM on Monday 20 Oct 2014 (Local Time) from KSFB Reporting Station
Broken Clouds Broken Clouds  
Wind Chill: 70°   Ceiling: 4000
Heat Index: 70°   Visibility: 10mi
Dew Point: 67°   Wind: 5mph
Humidity: 90%   Direction: 30°NNE
Pressure: 30.02"   Gusts: NA
Location:  28.8172°N, 81.4964°W
Report Text: KSFB 200853Z AUTO 03004KT 10SM BKN040 21/19 A3002 RMK AO2 SLP163 T02110194 56008
Loading
Personal Weather Stations






























Interactive Weather Map
Tropical Storm Tracking
New forecast layout! Learn more

10-Day Weather Forecast

Advertisements
Track Severe Weather on mobile